Airport Name : Grenchen

Other Name : Grenchen

ICAO : LSZG

IATA : ZHI

FAA :

Latitude : 47.181628

Longitude : 7.417189

Country : Switzerland

Local Date and Time : 24 Sep 2020 12:50

 

TAF (Terminal Aerodrome Forecast)

TAF LSZG 240825Z 2409/2418 23005KT 9999 FEW005 SCT015 BKN045 PROB40 2411/2414 CAVOK BECMG 2413/2415 SHRA PROB40 TEMPO 2413/2418 25015G30KT 4000 TSRA SCT040CB

 

METAR (METeorological Aerodrome Report)

LSZG 241020Z VRB01KT 9999 SCT020 18/14 Q1010 NOSIG

LSZG 240950Z VRB03KT 9999 SCT012 17/14 Q1010 NOSIG

LSZG 240920Z 00000KT 9999 SCT012 17/15 Q1010 NOSIG

LSZG 240850Z VRB02KT 9999 SCT010 BKN036 17/15 Q1010 NOSIG

LSZG 240820Z VRB01KT 9999 SCT010 SCT045 16/14 Q1011 NOSIG

LSZG 240750Z 07003KT 9999 FEW005 BKN040 16/15 Q1011 NOSIG

LSZG 240720Z 06003KT 9999 VCSH FEW003 SCT014 BKN045 16/15 Q1011 NOSIG

To Charter a Jet Click here.